Terminal Aerodrome Forecast
Issued by NWS

Home | Current Version | Previous Version | Text Only | Print | Product List | Glossary On
Versions: 1 2 3 4 5 6 7 8 9 10 11 12 13 14 15 16 17 18
000
FTUS41 KBOX 052320
TAFBED
TAF
KBED 052320Z 0600/0624 03008KT 6SM -RA BR BKN008 OVC015
     FM060300 36008KT P6SM VCSH OVC015
     FM060500 36008KT 6SM BR OVC020
     FM060900 35004KT P6SM OVC020
     FM061200 03008KT P6SM OVC030
     FM062000 08009KT P6SM VCSH BKN025=

USA.gov is the U.S. government's official web portal to all federal, state and local government web resources and services.